UA5639 / N854AS 7700 Squawk Report (21st of November, 2019)

Aircraft CRJ2 Reg No. N854AS Age N/A
Model Regional-Jet Jet engines 2 First flight 03-00
Registered 10-19 Rollout 03-00 Delivered 21-03-00
Construction No. 7382 Line No. N/A Series 200ER
ADSHEX ABB645 Airline name United Express Owner ExpressJet Airlines
Airfield based Chicago O`Hare~IL~N First tracked 2017-07-19 00:28:00

Flight history for N854AS

Route Flight No Date Playback
???? UA1358 2019-12-10 19:33:00
Roanoke–Blacksburg Regional (ROA) - Chicago Ohare Intl (ORD) UA5832 2019-12-10 17:43:00
Chicago Ohare Intl (ORD) - Roanoke–Blacksburg Regional (ROA) UA5767 2019-12-10 16:10:00
Fort Wayne (FWA) - Chicago Ohare Intl (ORD) UA5034 2019-12-10 13:47:00
Chicago Ohare Intl (ORD) - Fort Wayne (FWA) UA5089 2019-12-10 11:11:00
Kearney Municipal Airport (EAR) - Chicago Ohare Intl (ORD) UA5168 2019-12-10 00:14:00
Barkley Regional Airport (PAH) - Chicago Ohare Intl (ORD) - Kearney Municipal Airport (EAR) UA5147 2019-12-09 20:37:00
Shenandoah Valley Regional (SHD) - Chicago Ohare Intl (ORD) UA5070 2019-12-09 17:59:00
???? N/A 2019-12-09 13:44:00
Shenandoah Valley Regional (SHD) - Washington Dulles International (IAD) UA5107 2019-12-09 12:19:00
???? N/A 2019-12-09 04:02:00
Shenandoah Valley Regional (SHD) - Washington Dulles International (IAD) UA5047 2019-12-09 01:56:00
Chicago Ohare Intl (ORD) - Shenandoah Valley Regional (SHD) UA5038 2019-12-09 00:21:00
Washington Dulles International (IAD) - Ogdensburg Intl (OGS) - Chicago Ohare Intl (ORD) UA5125 2019-12-07 21:32:00
Mc Ghee Tyson (TYS) - Washington Dulles International (IAD) UA5434 2019-12-07 17:40:00
Chicago Ohare Intl (ORD) - Mc Ghee Tyson (TYS) UA5881 2019-12-07 15:18:00
Fort Wayne (FWA) - Chicago Ohare Intl (ORD) UA5034 2019-12-07 13:12:00
Chicago Ohare Intl (ORD) - Fort Wayne (FWA) UA5049 2019-12-07 11:36:00
Salina Municipal Airport (SLN) - Chicago Ohare Intl (ORD) UA5137 2019-12-07 03:03:00
Sioux Falls (FSD) - Denver Intl (DEN) UA5344 2019-12-06 20:49:00
Time Lat Lon Altitude Heading Speed Vertical Rate
2019-11-21 15:14:13 GMT 39.294514 -94.715584 0 118 0 0
2019-11-21 15:13:43 GMT 39.294521 -94.715576 0 118 0 0
2019-11-21 15:12:42 GMT 39.294521 -94.715576 0 118 0 0
2019-11-21 15:12:28 GMT 39.294571 -94.715691 0 118 5 0
2019-11-21 15:12:22 GMT 39.294628 -94.715820 0 115 5 0
2019-11-21 15:12:09 GMT 39.294651 -94.716156 0 36 8 0
2019-11-21 15:12:02 GMT 39.294365 -94.716286 0 5 10 0
2019-11-21 15:11:51 GMT 39.293850 -94.716362 0 5 12 0
2019-11-21 15:11:46 GMT 39.293613 -94.716400 0 5 12 0
2019-11-21 15:11:39 GMT 39.293159 -94.716446 0 2 13 0
2019-11-21 15:11:26 GMT 39.292522 -94.716446 0 357 11 0
2019-11-21 15:11:19 GMT 39.292213 -94.716446 0 0 11 0
2019-11-21 15:11:09 GMT 39.291607 -94.716553 0 30 13 0
2019-11-21 15:10:55 GMT 39.291389 -94.717361 0 95 10 0
2019-11-21 15:10:41 GMT 39.291412 -94.718018 0 90 7 0
2019-11-21 15:10:33 GMT 39.291405 -94.718292 0 78 5 0
2019-11-21 15:10:27 GMT 39.291401 -94.718391 0 67 4 0
2019-11-21 15:09:12 GMT 39.291321 -94.718582 0 45 0 0
2019-11-21 15:08:15 GMT 39.291321 -94.718582 0 45 4 0
2019-11-21 15:08:10 GMT 39.291218 -94.718689 0 22 9 0
2019-11-21 15:08:01 GMT 39.290741 -94.718491 0 309 19 0
2019-11-21 15:07:47 GMT 39.290112 -94.716858 0 289 31 0
2019-11-21 15:07:40 GMT 39.289925 -94.715332 0 278 43 0
2019-11-21 15:07:30 GMT 39.289673 -94.712296 0 281 57 0
2019-11-21 15:07:19 GMT 39.289352 -94.708405 0 281 76 0
2019-11-21 15:07:11 GMT 39.288971 -94.704041 950 276 100 0
2019-11-21 15:07:08 GMT 39.288879 -94.702759 950 277 103 -64
2019-11-21 15:06:58 GMT 39.288227 -94.695679 1,025 276 132 -576
2019-11-21 15:06:48 GMT 39.287575 -94.687866 1,100 277 130 -640
2019-11-21 15:06:38 GMT 39.286926 -94.679939 1,200 277 130 -576
2019-11-21 15:06:26 GMT 39.286148 -94.671455 1,350 277 126 -640
2019-11-21 15:06:17 GMT 39.285572 -94.664124 1,425 276 128 -384
2019-11-21 15:06:06 GMT 39.284874 -94.655701 1,525 278 120 -768
2019-11-21 15:05:55 GMT 39.284176 -94.648621 1,650 279 127 -640
2019-11-21 15:05:46 GMT 39.283386 -94.640869 1,775 279 124 -832
2019-11-21 15:05:40 GMT 39.282990 -94.637543 1,800 279 124 -832
2019-11-21 15:05:35 GMT 39.282501 -94.633301 1,900 279 128 -832
2019-11-21 15:05:30 GMT 39.282036 -94.629639 1,975 280 128 -1024
2019-11-21 15:05:27 GMT 39.281384 -94.624756 2,075 280 124 -1024
2019-11-21 15:05:20 GMT 39.281113 -94.622620 2,125 278 124 -1024
2019-11-21 15:05:15 GMT 39.280777 -94.618713 2,225 272 123 -704
2019-11-21 15:05:12 GMT 39.280701 -94.615692 2,250 271 125 -512
2019-11-21 15:05:04 GMT 39.280609 -94.610077 2,300 272 131 -384
2019-11-21 15:05:00 GMT 39.280518 -94.607208 2,325 274 133 -384
2019-11-21 15:04:54 GMT 39.280266 -94.601685 2,375 275 140 -256
2019-11-21 15:04:51 GMT 39.280079 -94.598877 2,375 275 144 -128
2019-11-21 15:04:43 GMT 39.279236 -94.588882 2,500 278 162 -960
2019-11-21 15:04:33 GMT 39.278637 -94.582947 2,625 279 166 -1088
2019-11-21 15:04:30 GMT 39.278229 -94.579330 2,675 278 169 -1088
2019-11-21 15:04:22 GMT 39.277382 -94.571960 2,825 279 171 -1088
2019-11-21 15:04:11 GMT 39.276123 -94.561096 3,000 278 176 -960
2019-11-21 15:04:02 GMT 39.275425 -94.550537 3,175 272 183 -640
2019-11-21 15:03:57 GMT 39.275299 -94.546074 3,200 273 184 -768
2019-11-21 15:03:51 GMT 39.274246 -94.527618 3,800 274 186 -1024
2019-11-21 15:03:41 GMT 39.274246 -94.527618 3,475 277 188 -1152
2019-11-21 15:03:31 GMT 39.273148 -94.515442 3,725 277 187 -1408
2019-11-21 15:03:27 GMT 39.272873 -94.512337 3,775 277 187 -1344
2019-11-21 15:03:20 GMT 39.272003 -94.504333 3,900 282 188 -320
2019-11-21 15:03:10 GMT 39.270164 -94.492554 3,925 280 188 -192
2019-11-21 15:02:59 GMT 39.267326 -94.469727 3,925 278 182 -64
2019-11-21 15:02:48 GMT 39.267326 -94.469727 3,925 281 180 0
2019-11-21 15:02:39 GMT 39.266022 -94.459167 3,925 276 185 0
2019-11-21 15:02:28 GMT 39.264996 -94.447449 3,950 280 185 0
2019-11-21 15:02:24 GMT 39.264530 -94.443970 3,950 280 185 0
2019-11-21 15:02:18 GMT 39.263786 -94.435852 3,950 275 185 0
2019-11-21 15:02:07 GMT 39.263741 -94.424561 3,925 263 187 192
2019-11-21 15:01:57 GMT 39.266602 -94.413162 3,950 242 200 -192
2019-11-21 15:01:45 GMT 39.270905 -94.401337 3,975 246 197 -256
2019-11-21 15:01:35 GMT 39.275425 -94.390259 4,075 237 195 -896
2019-11-21 15:01:25 GMT 39.280499 -94.380798 4,225 235 198 -832
2019-11-21 15:01:15 GMT 39.286331 -94.370468 4,375 230 203 -832
2019-11-21 15:01:03 GMT 39.294662 -94.361397 4,575 207 216 -1024
2019-11-21 15:00:54 GMT 39.304333 -94.358276 4,750 184 228 -1216
2019-11-21 15:00:43 GMT 39.315460 -94.358704 5,100 176 237 -1152
2019-11-21 15:00:38 GMT 39.320023 -94.359070 5,100 176 237 -1152
2019-11-21 15:00:32 GMT 39.328030 -94.359680 5,150 176 235 -1152
2019-11-21 15:00:21 GMT 39.338470 -94.360497 5,350 176 238 -1216
2019-11-21 15:00:12 GMT 39.350094 -94.362244 5,550 165 246 -1152
2019-11-21 15:00:00 GMT 39.370789 -94.380264 5,875 134 266 -1088
2019-11-21 14:59:51 GMT 39.370789 -94.380264 5,950 122 272 -1152
2019-11-21 14:59:42 GMT 39.375458 -94.392265 6,100 107 278 -1088
2019-11-21 14:59:39 GMT 39.376190 -94.395485 6,150 103 279 -1152
2019-11-21 14:59:30 GMT 39.378120 -94.412903 6,350 94 284 -1152
2019-11-21 14:59:18 GMT 39.379375 -94.431641 6,550 95 289 -1088
2019-11-21 14:59:11 GMT 39.380306 -94.445435 6,700 95 293 -1088
2019-11-21 14:59:00 GMT 39.381935 -94.468384 6,900 95 302 -704
2019-11-21 14:58:53 GMT 39.382370 -94.474358 6,900 95 306 -384
2019-11-21 14:58:48 GMT 39.383240 -94.487061 6,975 95 314 -704
2019-11-21 14:58:44 GMT 39.383514 -94.490959 7,000 95 315 -1024
2019-11-21 14:58:39 GMT 39.384266 -94.501709 7,150 95 318 -1664
2019-11-21 14:58:35 GMT 39.385056 -94.511963 7,300 95 320 -1728
2019-11-21 14:58:27 GMT 39.386684 -94.533325 7,625 95 324 -1984
2019-11-21 14:58:19 GMT 39.387314 -94.541237 7,750 95 324 -1920
2019-11-21 14:58:16 GMT 39.387661 -94.546021 7,850 95 324 -1920
2019-11-21 14:58:13 GMT 39.388126 -94.552246 7,950 95 325 -1920
2019-11-21 14:58:06 GMT 39.389282 -94.567146 8,175 95 327 -1920
2019-11-21 14:58:02 GMT 39.389664 -94.572021 8,250 95 327 -1920
2019-11-21 14:57:56 GMT 39.391155 -94.592712 8,575 95 329 -1984
2019-11-21 14:57:53 GMT 39.392212 -94.607811 8,850 94 330 -1984
2019-11-21 14:57:45 GMT 39.392212 -94.607811 8,850 94 331 -1984
2019-11-21 14:57:41 GMT 39.392487 -94.612946 8,950 94 330 -1920
2019-11-21 14:57:34 GMT 39.393528 -94.633301 9,225 93 333 -1600
2019-11-21 14:57:27 GMT 39.393948 -94.643677 9,375 92 334 -1600
2019-11-21 14:57:24 GMT 39.394043 -94.647453 9,475 90 335 -1600
2019-11-21 14:57:21 GMT 39.394135 -94.654236 9,500 88 336 -1664
2019-11-21 14:57:16 GMT 39.393997 -94.663872 9,625 86 337 -1664
2019-11-21 14:57:10 GMT 39.393341 -94.676147 9,725 85 339 -1600
2019-11-21 14:57:06 GMT 39.392120 -94.692535 10,000 84 342 -1664
2019-11-21 14:57:00 GMT 39.391712 -94.697632 10,075 84 342 -1664
2019-11-21 14:56:55 GMT 39.391022 -94.705971 10,175 83 344 -1664
2019-11-21 14:56:51 GMT 39.390335 -94.714149 10,300 84 345 -1728
2019-11-21 14:56:47 GMT 39.389709 -94.722168 10,400 84 347 -1664
2019-11-21 14:56:43 GMT 39.388824 -94.733139 10,575 84 348 -1664
2019-11-21 14:56:35 GMT 39.387543 -94.749321 10,750 84 351 -1728
2019-11-21 14:56:31 GMT 39.386490 -94.762695 10,925 84 352 -1728
2019-11-21 14:56:22 GMT 39.385475 -94.776367 11,150 84 355 -1728
2019-11-21 14:56:19 GMT 39.384888 -94.783768 11,200 84 356 -1664
2019-11-21 14:56:14 GMT 39.383568 -94.800964 11,400 84 359 -1536
2019-11-21 14:56:09 GMT 39.383568 -94.800964 11,475 84 359 -1472
2019-11-21 14:56:06 GMT 39.382915 -94.809509 11,525 85 359 -1408
2019-11-21 14:56:03 GMT 39.382599 -94.814880 11,575 86 358 -1088
2019-11-21 14:56:00 GMT 39.382309 -94.821045 11,725 90 359 -960
2019-11-21 14:55:56 GMT 39.382324 -94.830704 11,675 94 359 -960
2019-11-21 14:55:53 GMT 39.383472 -94.842346 11,750 104 352 -832
2019-11-21 14:55:50 GMT 39.384933 -94.849869 11,825 110 349 -704
2019-11-21 14:55:46 GMT 39.387478 -94.858704 11,825 110 349 -704
2019-11-21 14:55:43 GMT 39.387478 -94.858704 11,875 115 347 -512
2019-11-21 14:55:38 GMT 39.390503 -94.866455 11,875 121 343 0
2019-11-21 14:55:35 GMT 39.393017 -94.871643 11,875 125 340 0
2019-11-21 14:55:29 GMT 39.400131 -94.882706 11,875 134 335 0
2019-11-21 14:55:26 GMT 39.402283 -94.885574 11,875 135 335 0
2019-11-21 14:55:22 GMT 39.406723 -94.891243 11,875 135 335 0
2019-11-21 14:55:19 GMT 39.410248 -94.895721 11,875 135 335 0
2019-11-21 14:55:15 GMT 39.413589 -94.899963 11,875 135 335 0
2019-11-21 14:55:12 GMT 39.418442 -94.906113 11,875 135 335 0
2019-11-21 14:55:08 GMT 39.422699 -94.911484 11,900 135 336 -64
2019-11-21 14:55:04 GMT 39.430119 -94.920898 11,900 135 334 0
2019-11-21 14:55:00 GMT 39.434772 -94.926819 11,900 135 334 0
2019-11-21 14:54:57 GMT 39.434772 -94.926819 11,900 135 333 0
2019-11-21 14:54:54 GMT 39.437943 -94.930832 11,900 135 333 64
2019-11-21 14:54:51 GMT 39.441803 -94.935730 11,900 135 316 -128
2019-11-21 14:54:48 GMT 39.444580 -94.939194 11,875 135 329 0
2019-11-21 14:54:43 GMT 39.449486 -94.945435 11,875 135 328 0
2019-11-21 14:54:40 GMT 39.452820 -94.949699 11,900 135 326 -64
2019-11-21 14:54:36 GMT 39.456711 -94.954597 11,900 135 325 -128
2019-11-21 14:54:32 GMT 39.460785 -94.959732 11,900 135 321 -128
2019-11-21 14:54:29 GMT 39.464035 -94.963730 11,925 135 316 -128
2019-11-21 14:54:26 GMT 39.467079 -94.967590 11,925 135 316 -128
2019-11-21 14:54:23 GMT 39.475159 -94.977646 11,925 135 310 320
2019-11-21 14:54:16 GMT 39.478348 -94.981689 11,875 135 308 64
2019-11-21 14:54:13 GMT 39.481522 -94.985703 11,875 135 308 320
2019-11-21 14:54:09 GMT 39.485413 -94.990601 11,875 135 308 0
2019-11-21 14:54:02 GMT 39.492870 -95.000000 11,875 135 310 -128
2019-11-21 14:53:59 GMT 39.496445 -95.004570 11,875 135 313 -128
2019-11-21 14:53:56 GMT 39.499329 -95.008270 11,900 135 316 -128
2019-11-21 14:53:52 GMT 39.503082 -95.013107 11,900 135 323 -192
2019-11-21 14:53:48 GMT 39.507339 -95.018600 11,925 135 329 -512
2019-11-21 14:53:42 GMT 39.514160 -95.027260 12,000 135 340 -960
2019-11-21 14:53:37 GMT 39.518921 -95.033295 12,075 135 346 -1472
2019-11-21 14:53:31 GMT 39.527893 -95.044754 12,350 135 354 -2688
2019-11-21 14:53:27 GMT 39.530579 -95.048218 12,475 135 355 -3200
2019-11-21 14:53:20 GMT 39.539284 -95.059265 12,875 135 358 -3392
2019-11-21 14:53:17 GMT 39.542725 -95.063622 13,100 135 359 -3392
2019-11-21 14:53:11 GMT 39.550453 -95.073425 13,700 135 362 -3392
2019-11-21 14:53:07 GMT 39.555019 -95.079163 13,600 135 362 -3392
2019-11-21 14:52:59 GMT 39.563351 -95.089783 14,000 135 364 -3392
2019-11-21 14:52:55 GMT 39.570332 -95.098694 14,300 135 365 -3392
2019-11-21 14:52:50 GMT 39.576153 -95.106079 14,575 135 366 -3392
2019-11-21 14:52:44 GMT 39.582203 -95.113831 15,150 135 369 -3456
2019-11-21 14:52:39 GMT 39.588535 -95.121887 15,150 135 369 -3456
2019-11-21 14:52:36 GMT 39.593422 -95.128113 15,350 135 371 -3392
2019-11-21 14:52:28 GMT 39.601292 -95.138062 15,700 135 373 -3328
2019-11-21 14:52:23 GMT 39.607948 -95.146545 16,100 135 376 -3392
2019-11-21 14:52:18 GMT 39.614651 -95.155029 16,300 135 376 -3392
2019-11-21 14:52:15 GMT 39.621506 -95.163750 16,575 135 377 -3392
2019-11-21 14:52:07 GMT 39.627228 -95.171036 16,850 135 379 -3392
2019-11-21 14:52:03 GMT 39.634506 -95.180290 17,175 135 380 -3392
2019-11-21 14:51:58 GMT 39.640442 -95.187744 17,450 135 381 -3392
2019-11-21 14:51:52 GMT 39.647369 -95.196594 17,625 135 382 -3328
2019-11-21 14:51:47 GMT 39.653336 -95.204102 18,000 135 383 -3392
2019-11-21 14:51:44 GMT 39.660324 -95.212952 18,525 135 386 -3392
2019-11-21 14:51:37 GMT 39.667397 -95.221802 18,600 135 387 -3392
2019-11-21 14:51:31 GMT 39.674698 -95.231102 18,925 135 388 -3392
2019-11-21 14:51:26 GMT 39.680603 -95.238625 19,175 135 391 -3456
2019-11-21 14:51:20 GMT 39.687561 -95.247520 19,475 135 391 -3456
2019-11-21 14:51:16 GMT 39.693882 -95.255615 19,750 135 393 -3456
2019-11-21 14:51:11 GMT 39.700790 -95.264359 20,050 135 394 -3456
2019-11-21 14:51:05 GMT 39.707150 -95.272583 20,325 135 397 -3456
2019-11-21 14:51:00 GMT 39.713516 -95.280785 20,600 135 398 -3456
2019-11-21 14:50:55 GMT 39.721256 -95.290833 20,925 134 402 -3456
2019-11-21 14:50:52 GMT 39.725327 -95.296127 21,100 134 403 -3456
2019-11-21 14:50:48 GMT 39.728760 -95.300545 21,250 134 403 -3456
2019-11-21 14:50:44 GMT 39.734711 -95.308289 21,500 135 407 -3456
2019-11-21 14:50:40 GMT 39.741646 -95.317322 21,775 135 410 -3392
2019-11-21 14:50:32 GMT 39.749977 -95.328125 22,125 134 413 -3392
2019-11-21 14:50:29 GMT 39.755379 -95.335144 22,375 135 416 -3456
2019-11-21 14:50:23 GMT 39.763340 -95.345398 22,675 135 420 -3392
2019-11-21 14:50:18 GMT 39.770370 -95.354462 22,975 135 422 -3392
2019-11-21 14:50:15 GMT 39.775768 -95.361511 23,175 134 426 -3392
2019-11-21 14:50:12 GMT 39.777954 -95.364441 23,250 133 427 -3328
2019-11-21 14:50:08 GMT 39.783325 -95.371719 23,525 131 434 -3328
2019-11-21 14:50:03 GMT 39.791317 -95.383850 23,800 127 443 -3328
2019-11-21 14:49:55 GMT 39.800999 -95.401306 24,225 121 456 -3264
2019-11-21 14:49:51 GMT 39.804199 -95.408081 24,375 119 459 -3264
2019-11-21 14:49:48 GMT 39.808399 -95.418030 24,600 116 466 -3200
2019-11-21 14:49:42 GMT 39.813663 -95.432861 24,925 110 476 -3712
2019-11-21 14:49:37 GMT 39.817200 -95.445251 25,200 107 481 -3136
2019-11-21 14:49:33 GMT 39.819389 -95.454651 25,375 103 484 -3136
2019-11-21 14:49:30 GMT 39.820953 -95.462830 25,525 102 485 -3136
2019-11-21 14:49:24 GMT 39.824203 -95.492386 25,925 94 489 -3072
2019-11-21 14:49:21 GMT 39.824203 -95.492386 30,425 91 492 -3072
2019-11-21 14:49:17 GMT 39.824478 -95.504807 26,275 84 495 -3072
2019-11-21 14:49:14 GMT 39.824387 -95.511314 26,500 85 494 -3072
2019-11-21 14:49:09 GMT 39.823532 -95.525818 30,425 83 495 -3008
2019-11-21 14:49:03 GMT 39.821365 -95.546127 26,950 81 496 -2944
2019-11-21 14:48:59 GMT 39.820457 -95.553528 27,075 81 497 -2944
2019-11-21 14:48:55 GMT 39.818939 -95.566841 27,300 81 497 -2944
2019-11-21 14:48:52 GMT 39.817841 -95.576279 27,450 81 498 -2944
2019-11-21 14:48:48 GMT 39.816467 -95.588097 30,425 80 503 -1984
2019-11-21 14:48:44 GMT 39.815292 -95.598450 27,875 81 499 -2944
2019-11-21 14:48:41 GMT 39.814175 -95.607971 27,975 81 499 -2944
2019-11-21 14:48:38 GMT 39.813217 -95.616524 28,100 81 499 -2944
2019-11-21 14:48:32 GMT 39.811157 -95.634315 28,475 81 499 -2944
2019-11-21 14:48:29 GMT 39.809784 -95.646194 28,600 81 499 -2944
2019-11-21 14:48:24 GMT 39.808029 -95.661255 28,850 81 499 -2944
2019-11-21 14:48:20 GMT 39.807098 -95.668945 28,975 81 498 -2880
2019-11-21 14:48:17 GMT 39.806030 -95.678139 30,425 80 503 -1984
2019-11-21 14:48:08 GMT 39.802582 -95.708008 29,600 81 498 -2624
2019-11-21 14:48:00 GMT 39.798981 -95.739105 30,025 81 499 -2176
2019-11-21 14:47:52 GMT 39.797241 -95.753311 30,175 80 501 -2048
2019-11-21 14:47:49 GMT 39.796371 -95.760475 30,275 80 501 -2048
2019-11-21 14:47:45 GMT 39.794483 -95.775635 30,375 80 502 -1920
2019-11-21 14:47:39 GMT 39.792015 -95.795898 30,700 80 504 -2304
2019-11-21 14:47:35 GMT 39.791107 -95.803352 30,800 80 503 -2880
2019-11-21 14:47:31 GMT 39.789597 -95.815292 31,000 80 503 -2944
2019-11-21 14:47:28 GMT 39.788479 -95.823914 31,125 80 503 -2880
2019-11-21 14:47:19 GMT 39.784428 -95.854248 31,550 80 503 -2688
2019-11-21 14:47:12 GMT 39.782238 -95.870911 31,825 80 503 -2880
2019-11-21 14:47:06 GMT 39.779892 -95.889328 32,150 80 500 -3520
2019-11-21 14:46:58 GMT 39.776688 -95.915543 32,700 80 495 -3648
2019-11-21 14:46:53 GMT 39.774651 -95.932251 32,950 80 495 -1152
2019-11-21 14:46:47 GMT 39.772842 -95.946587 33,000 80 497 0
2019-11-21 14:46:40 GMT 39.770462 -95.965759 33,000 80 497 64
2019-11-21 14:46:34 GMT 39.768127 -95.984924 33,000 80 498 0
2019-11-21 14:46:30 GMT 39.766663 -95.996681 33,000 80 498 0
2019-11-21 14:46:25 GMT 39.764503 -96.014709 33,000 80 498 -64
2019-11-21 14:46:19 GMT 39.762955 -96.027374 33,000 80 498 -64
2019-11-21 14:46:16 GMT 39.761662 -96.037720 33,000 80 498 -64
2019-11-21 14:46:09 GMT 39.759201 -96.057465 33,000 80 498 0
2019-11-21 14:46:03 GMT 39.756821 -96.076332 33,000 80 498 64
2019-11-21 14:45:59 GMT 39.755379 -96.087830 33,000 80 498 64
2019-11-21 14:45:55 GMT 39.753517 -96.102539 33,000 80 498 0
2019-11-21 14:45:48 GMT 39.751282 -96.120300 33,000 80 499 64
2019-11-21 14:45:43 GMT 39.749588 -96.133598 33,000 80 499 0
2019-11-21 14:45:38 GMT 39.747757 -96.148346 33,000 80 499 0
2019-11-21 14:45:28 GMT 39.744003 -96.177902 33,000 80 499 -64
2019-11-21 14:45:18 GMT 39.740017 -96.209534 33,000 80 500 64
2019-11-21 14:45:08 GMT 39.736313 -96.238861 33,000 80 500 0
2019-11-21 14:44:58 GMT 39.732513 -96.269073 33,000 80 501 0
2019-11-21 14:44:47 GMT 39.728703 -96.299011 33,000 80 501 0
2019-11-21 14:44:42 GMT 39.726467 -96.316833 33,000 80 501 0
2019-11-21 14:44:37 GMT 39.724747 -96.330444 33,000 80 501 0
2019-11-21 14:44:27 GMT 39.720978 -96.360107 33,000 80 502 0
2019-11-21 14:44:17 GMT 39.717087 -96.390701 33,000 80 503 0
2019-11-21 14:44:06 GMT 39.713154 -96.421387 33,000 80 503 -64
2019-11-21 14:43:56 GMT 39.709213 -96.452080 33,000 80 504 64
2019-11-21 14:43:46 GMT 39.705429 -96.481628 33,000 80 504 0
2019-11-21 14:43:36 GMT 39.701469 -96.512634 33,000 80 505 0
2019-11-21 14:43:25 GMT 39.697449 -96.544029 33,000 80 505 -128
2019-11-21 14:43:15 GMT 39.693649 -96.573883 33,025 80 505 -64
2019-11-21 14:43:05 GMT 39.689758 -96.604393 33,000 80 506 128
2019-11-21 14:42:54 GMT 39.685596 -96.637024 33,000 80 506 -64
2019-11-21 14:42:44 GMT 39.681732 -96.666992 33,000 80 506 0
2019-11-21 14:42:34 GMT 39.677963 -96.696350 33,025 80 506 0
2019-11-21 14:42:24 GMT 39.673965 -96.727219 33,000 80 507 64
2019-11-21 14:42:14 GMT 39.669861 -96.758667 33,000 80 508 64
2019-11-21 14:42:03 GMT 39.665726 -96.790146 32,975 80 508 0
2019-11-21 14:41:54 GMT 39.661926 -96.818924 33,000 80 508 -64
2019-11-21 14:41:43 GMT 39.657806 -96.850098 33,000 80 507 -64
2019-11-21 14:41:33 GMT 39.653664 -96.880920 33,000 80 508 64
2019-11-21 14:41:22 GMT 39.649658 -96.911499 33,000 80 508 -64
2019-11-21 14:41:13 GMT 39.645630 -96.941750 33,000 80 508 0
2019-11-21 14:41:02 GMT 39.641464 -96.973267 33,000 80 508 0
2019-11-21 14:40:52 GMT 39.637417 -97.003845 33,000 80 508 0
2019-11-21 14:40:41 GMT 39.633316 -97.034775 33,000 80 509 0
2019-11-21 14:40:32 GMT 39.628967 -97.067139 33,000 80 509 -64
2019-11-21 14:40:21 GMT 39.625080 -97.096252 33,000 80 509 0
2019-11-21 14:40:14 GMT 39.622330 -97.116989 33,000 80 509 0
2019-11-21 14:40:08 GMT 39.619537 -97.137695 33,000 80 509 0
2019-11-21 14:40:00 GMT 39.616837 -97.157829 33,000 80 509 -64
2019-11-21 14:39:57 GMT 39.615349 -97.168945 33,000 80 509 0
2019-11-21 14:39:51 GMT 39.612556 -97.189392 33,000 80 509 0
2019-11-21 14:39:47 GMT 39.611115 -97.200195 33,000 80 509 0
2019-11-21 14:39:40 GMT 39.608551 -97.219154 33,000 80 510 64
2019-11-21 14:39:35 GMT 39.606674 -97.232948 33,000 80 510 64
2019-11-21 14:39:30 GMT 39.604317 -97.250671 33,000 80 510 0
2019-11-21 14:39:23 GMT 39.601822 -97.269066 33,000 80 512 0
2019-11-21 14:39:19 GMT 39.600079 -97.281982 33,000 80 510 -64
2019-11-21 14:39:10 GMT 39.595963 -97.312355 33,000 79 510 0
2019-11-21 14:38:58 GMT 39.591293 -97.346687 33,000 79 511 64
2019-11-21 14:38:49 GMT 39.587677 -97.373199 33,000 79 511 64
2019-11-21 14:38:38 GMT 39.583275 -97.405457 33,000 79 512 0
2019-11-21 14:38:29 GMT 39.579037 -97.436279 33,000 79 512 0
2019-11-21 14:38:18 GMT 39.574848 -97.466492 33,000 79 513 0
2019-11-21 14:38:07 GMT 39.570564 -97.497925 33,000 79 513 0
2019-11-21 14:37:57 GMT 39.566189 -97.529358 33,000 79 514 0
2019-11-21 14:37:48 GMT 39.561909 -97.560242 33,000 79 513 -64
2019-11-21 14:37:37 GMT 39.557785 -97.590179 33,000 79 513 0
2019-11-21 14:37:26 GMT 39.553387 -97.622009 33,000 79 515 64
2019-11-21 14:37:16 GMT 39.549179 -97.652573 33,000 79 515 0
2019-11-21 14:37:07 GMT 39.544785 -97.684097 33,000 79 515 0
2019-11-21 14:36:56 GMT 39.540585 -97.714111 33,000 79 515 0
2019-11-21 14:36:44 GMT 39.535721 -97.748947 33,000 79 516 0
2019-11-21 14:36:35 GMT 39.531738 -97.777481 33,000 79 516 0
2019-11-21 14:36:26 GMT 39.527599 -97.807556 33,000 79 517 64
2019-11-21 14:36:15 GMT 39.523041 -97.840118 33,000 79 517 64
2019-11-21 14:36:05 GMT 39.518829 -97.869911 33,000 79 517 0
2019-11-21 14:35:54 GMT 39.514191 -97.902405 33,000 79 517 -64
2019-11-21 14:35:45 GMT 39.509903 -97.932487 33,000 79 516 -64
2019-11-21 14:35:34 GMT 39.505344 -97.964355 33,000 79 516 0
2019-11-21 14:35:24 GMT 39.501068 -97.995003 33,000 79 515 0
2019-11-21 14:35:13 GMT 39.496857 -98.025993 33,000 80 516 0
2019-11-21 14:35:04 GMT 39.492592 -98.057251 33,000 80 516 0
2019-11-21 14:34:53 GMT 39.488205 -98.089165 33,000 79 517 64
2019-11-21 14:34:42 GMT 39.483856 -98.120148 33,000 79 517 0
2019-11-21 14:34:32 GMT 39.479649 -98.150269 33,000 79 517 0
2019-11-21 14:34:23 GMT 39.475204 -98.181534 33,000 79 517 0
2019-11-21 14:34:12 GMT 39.470806 -98.212830 33,000 79 517 0
2019-11-21 14:34:02 GMT 39.466476 -98.243225 33,000 79 517 -64
2019-11-21 14:33:51 GMT 39.461929 -98.275093 33,000 79 517 0
2019-11-21 14:33:42 GMT 39.457626 -98.305489 33,000 79 517 0
2019-11-21 14:33:31 GMT 39.453209 -98.336792 33,000 79 517 0
2019-11-21 14:33:20 GMT 39.448563 -98.369316 33,000 79 517 0
2019-11-21 14:33:10 GMT 39.444351 -98.399048 33,000 79 517 0
2019-11-21 14:33:01 GMT 39.439774 -98.431290 33,000 79 518 0
2019-11-21 14:32:50 GMT 39.435425 -98.462036 33,000 79 518 0
2019-11-21 14:32:19 GMT 39.421413 -98.559326 33,000 79 518 0
2019-11-21 14:32:11 GMT 39.418396 -98.580322 33,000 79 518 0
2019-11-21 14:32:08 GMT 39.416977 -98.590057 33,000 79 518 0
2019-11-21 14:32:04 GMT 39.414894 -98.604370 33,000 79 518 0
2019-11-21 14:31:55 GMT 39.411392 -98.628387 33,000 79 518 0
2019-11-21 14:31:02 GMT 39.387863 -98.790077 33,000 79 518 0
2019-11-21 14:30:55 GMT 39.384109 -98.815575 33,000 79 518 0
2019-11-21 14:30:42 GMT 39.379143 -98.849304 33,000 79 518 0
2019-11-21 14:29:53 GMT 39.357079 -98.999146 33,000 79 518 0
2019-11-21 14:29:42 GMT 39.352051 -99.033081 33,000 79 517 0
2019-11-21 14:29:18 GMT 39.341354 -99.104858 33,000 78 517 0
2019-11-21 14:29:11 GMT 39.337620 -99.130005 33,000 79 517 0
2019-11-21 14:29:00 GMT 39.332977 -99.161102 33,000 79 516 0
2019-11-21 14:28:37 GMT 39.323044 -99.228218 33,000 79 517 0
2019-11-21 14:28:27 GMT 39.317963 -99.262070 33,000 79 517 64
2019-11-21 14:28:16 GMT 39.313522 -99.291748 33,000 78 517 0
2019-11-21 14:25:29 GMT 39.236320 -99.796143 33,000 78 514 0
2019-11-21 14:25:26 GMT 39.235016 -99.804504 33,000 78 513 0
2019-11-21 14:24:26 GMT 39.206726 -99.985680 33,000 78 512 0
2019-11-21 14:24:20 GMT 39.204201 -100.001526 33,000 78 512 0
2019-11-21 14:24:12 GMT 39.200363 -100.025681 33,000 78 511 0
2019-11-21 14:24:02 GMT 39.195587 -100.055786 33,000 78 511 0
2019-11-21 14:23:51 GMT 39.190189 -100.089722 33,000 78 511 -64
2019-11-21 14:23:41 GMT 39.185440 -100.119186 33,000 78 510 0
2019-11-21 14:23:29 GMT 39.179993 -100.153992 33,000 78 509 0
2019-11-21 14:23:20 GMT 39.175755 -100.180664 33,000 78 508 -64
2019-11-21 14:23:09 GMT 39.170681 -100.212585 33,000 78 507 0
2019-11-21 14:22:55 GMT 39.164017 -100.254723 33,000 78 505 0
2019-11-21 14:22:47 GMT 39.160263 -100.278191 33,000 78 504 0
2019-11-21 14:22:36 GMT 39.155273 -100.309570 33,000 78 502 0
2019-11-21 14:22:27 GMT 39.150944 -100.336487 33,000 78 501 0
2019-11-21 14:22:17 GMT 39.146194 -100.365601 33,000 78 499 64
2019-11-21 14:22:04 GMT 39.139866 -100.404480 33,000 78 497 0
2019-11-21 14:21:56 GMT 39.136093 -100.427612 33,000 78 495 0
2019-11-21 14:21:43 GMT 39.130276 -100.463318 33,000 78 494 0
2019-11-21 14:21:25 GMT 39.121571 -100.517090 33,000 78 490 0
2019-11-21 14:21:13 GMT 39.116455 -100.548668 33,000 78 488 0
2019-11-21 14:21:04 GMT 39.111969 -100.576431 33,000 78 486 64
2019-11-21 14:20:53 GMT 39.107094 -100.607300 33,000 78 485 0
2019-11-21 14:20:42 GMT 39.102249 -100.637207 33,000 78 484 -64
2019-11-21 14:20:32 GMT 39.097641 -100.665573 33,000 78 483 0
2019-11-21 14:20:21 GMT 39.092743 -100.695847 33,000 78 482 -64
2019-11-21 14:20:10 GMT 39.087681 -100.726929 33,025 78 480 0
2019-11-21 14:20:00 GMT 39.083210 -100.754211 33,000 78 479 192
2019-11-21 14:19:48 GMT 39.077591 -100.788452 32,950 78 478 320
2019-11-21 14:19:40 GMT 39.073437 -100.813721 32,900 78 478 320
2019-11-21 14:19:29 GMT 39.068592 -100.843201 32,850 78 478 256
2019-11-21 14:19:18 GMT 39.063492 -100.874016 32,775 78 478 320
2019-11-21 14:19:07 GMT 39.058823 -100.902321 32,725 78 478 384
2019-11-21 14:18:57 GMT 39.054024 -100.931458 32,650 78 478 512
2019-11-21 14:18:47 GMT 39.049210 -100.960594 32,575 78 478 512
2019-11-21 14:18:36 GMT 39.044220 -100.990623 32,475 77 479 512
2019-11-21 14:18:26 GMT 39.039413 -101.019585 32,375 77 479 512
2019-11-21 14:18:14 GMT 39.034424 -101.049377 32,300 77 479 512
2019-11-21 14:18:04 GMT 39.029480 -101.079178 32,200 77 480 512
2019-11-21 14:17:54 GMT 39.024445 -101.109268 32,100 77 480 512
2019-11-21 14:17:42 GMT 39.019573 -101.138550 32,025 77 480 512
2019-11-21 14:17:32 GMT 39.014557 -101.168381 31,975 77 480 256
2019-11-21 14:17:20 GMT 39.008926 -101.202354 31,900 77 479 256
2019-11-21 14:17:10 GMT 39.003838 -101.232666 31,850 77 478 320
2019-11-21 14:17:01 GMT 38.999882 -101.256042 31,800 77 478 320
2019-11-21 14:16:50 GMT 38.994900 -101.285400 31,750 77 478 320
2019-11-21 14:16:39 GMT 38.989792 -101.315559 31,675 77 476 320
2019-11-21 14:16:30 GMT 38.985916 -101.338501 31,625 77 476 384
2019-11-21 14:16:27 GMT 38.984055 -101.349548 31,625 77 476 384
2019-11-21 14:16:16 GMT 38.978516 -101.382141 31,550 77 475 320
2019-11-21 14:16:08 GMT 38.975071 -101.402527 31,525 77 474 64
2019-11-21 14:15:59 GMT 38.971207 -101.425362 31,525 77 473 64
2019-11-21 14:15:46 GMT 38.964970 -101.461731 31,500 77 471 64
2019-11-21 14:15:41 GMT 38.962639 -101.475403 31,500 77 470 128
2019-11-21 14:15:37 GMT 38.961273 -101.483276 31,475 77 469 192
2019-11-21 14:15:33 GMT 38.958847 -101.497429 31,475 77 469 256
2019-11-21 14:15:27 GMT 38.956493 -101.511292 31,425 77 469 512
2019-11-21 14:15:23 GMT 38.953796 -101.527039 31,375 77 469 640
2019-11-21 14:15:14 GMT 38.949829 -101.550156 31,300 77 469 256
2019-11-21 14:15:06 GMT 38.946720 -101.568359 31,300 77 469 64
2019-11-21 14:15:02 GMT 38.942871 -101.590874 31,275 77 465 512
2019-11-21 14:14:55 GMT 38.941692 -101.597656 31,275 77 466 128
2019-11-21 14:14:49 GMT 38.938435 -101.616516 31,225 77 465 512
2019-11-21 14:14:45 GMT 38.936829 -101.625984 31,250 77 466 384
2019-11-21 14:14:42 GMT 38.934769 -101.637802 31,200 77 465 576
2019-11-21 14:14:37 GMT 38.933220 -101.646667 31,175 77 466 640
2019-11-21 14:14:34 GMT 38.931728 -101.655334 31,150 77 466 704
2019-11-21 14:14:31 GMT 38.929779 -101.666344 31,100 77 466 768
2019-11-21 14:14:28 GMT 38.928425 -101.674194 31,050 77 467 640
2019-11-21 14:14:24 GMT 38.926987 -101.682526 31,025 77 467 576
2019-11-21 14:14:17 GMT 38.923233 -101.704140 30,950 77 467 384
2019-11-21 14:14:13 GMT 38.922001 -101.711426 30,950 77 467 320
2019-11-21 14:14:06 GMT 38.918694 -101.730286 30,875 77 465 384
2019-11-21 14:14:03 GMT 38.917110 -101.739441 30,900 77 465 384
2019-11-21 14:13:58 GMT 38.914307 -101.755371 30,850 77 465 384
2019-11-21 14:13:52 GMT 38.911880 -101.769341 30,825 77 465 448
2019-11-21 14:13:46 GMT 38.908642 -101.787903 30,775 77 465 448
2019-11-21 14:13:42 GMT 38.907303 -101.795677 30,750 77 465 384
2019-11-21 14:13:35 GMT 38.903610 -101.816895 30,725 77 464 256
2019-11-21 14:13:31 GMT 38.902313 -101.824158 30,700 77 464 320
2019-11-21 14:13:25 GMT 38.898743 -101.844513 30,650 77 463 384
2019-11-21 14:13:21 GMT 38.897461 -101.851982 30,650 77 463 448
2019-11-21 14:13:13 GMT 38.893616 -101.873955 30,575 77 462 448
2019-11-21 14:13:10 GMT 38.892254 -101.881714 30,550 77 463 448
2019-11-21 14:13:03 GMT 38.888481 -101.903076 30,500 77 462 512
2019-11-21 14:13:00 GMT 38.887482 -101.908699 30,475 77 462 640
2019-11-21 14:12:55 GMT 38.884872 -101.923630 30,400 77 462 832
2019-11-21 14:12:52 GMT 38.883690 -101.930298 30,375 77 463 832
2019-11-21 14:12:43 GMT 38.877686 -101.964287 30,200 77 464 640
2019-11-21 14:12:34 GMT 38.874756 -101.980888 30,150 77 463 256
2019-11-21 14:12:28 GMT 38.872749 -101.992432 30,125 77 463 192
2019-11-21 14:12:21 GMT 38.868942 -102.014030 30,125 77 461 128
2019-11-21 14:12:18 GMT 38.867767 -102.020691 30,100 77 460 128
2019-11-21 14:12:11 GMT 38.864731 -102.037971 30,050 77 459 448
2019-11-21 14:12:07 GMT 38.862946 -102.048058 30,050 77 459 576
2019-11-21 14:12:01 GMT 38.859852 -102.065857 29,900 77 459 704
2019-11-21 14:11:57 GMT 38.857944 -102.076416 29,925 77 459 512
2019-11-21 14:11:51 GMT 38.854614 -102.095230 29,875 77 458 384
2019-11-21 14:11:45 GMT 38.852592 -102.106628 29,850 77 458 448
2019-11-21 14:11:40 GMT 38.849892 -102.121948 29,800 77 458 576
2019-11-21 14:11:35 GMT 38.848030 -102.132507 29,750 77 457 576
2019-11-21 14:11:29 GMT 38.844406 -102.153389 29,675 77 457 512
2019-11-21 14:11:25 GMT 38.843235 -102.159973 29,650 77 457 384
2019-11-21 14:11:15 GMT 38.838390 -102.187378 29,225 77 456 640
2019-11-21 14:11:08 GMT 38.834667 -102.208435 29,475 77 455 832
2019-11-21 14:11:03 GMT 38.833084 -102.217346 29,425 77 455 768
2019-11-21 14:10:54 GMT 38.826324 -102.255424 29,300 77 453 448
2019-11-21 14:10:43 GMT 38.823635 -102.270386 29,000 77 453 448
2019-11-21 14:10:33 GMT 38.818771 -102.297821 29,000 77 452 576
2019-11-21 14:10:21 GMT 38.813580 -102.327332 29,000 77 451 256
2019-11-21 14:10:12 GMT 38.809158 -102.352295 29,000 77 448 576
2019-11-21 14:10:01 GMT 38.804077 -102.380455 28,925 77 447 768
2019-11-21 14:09:51 GMT 38.799271 -102.407265 28,825 77 447 768
2019-11-21 14:09:40 GMT 38.794189 -102.435631 28,700 77 447 640
2019-11-21 14:09:30 GMT 38.789791 -102.460083 28,325 76 442 576
2019-11-21 14:09:18 GMT 38.784344 -102.490356 28,500 76 443 768
2019-11-21 14:09:09 GMT 38.780064 -102.513855 28,350 76 444 768
2019-11-21 14:09:06 GMT 38.777985 -102.525368 28,300 76 443 640
2019-11-21 14:08:58 GMT 38.774506 -102.544235 28,250 76 443 576
2019-11-21 14:08:55 GMT 38.773041 -102.552414 28,200 76 442 576
2019-11-21 14:08:51 GMT 38.770844 -102.564392 28,175 76 442 448
2019-11-21 14:08:48 GMT 38.770100 -102.568481 28,150 76 441 448
2019-11-21 14:08:43 GMT 38.767090 -102.585014 28,125 76 440 384
2019-11-21 14:08:39 GMT 38.765587 -102.593384 28,100 76 439 384
2019-11-21 14:08:31 GMT 38.762558 -102.609795 28,050 76 438 512
2019-11-21 14:08:28 GMT 38.760452 -102.621384 28,025 76 437 640
2019-11-21 14:08:22 GMT 38.758347 -102.632965 27,925 76 437 832
2019-11-21 14:08:15 GMT 38.754971 -102.651367 27,850 76 437 768
2019-11-21 14:08:09 GMT 38.751663 -102.669685 27,750 76 436 640
2019-11-21 14:08:05 GMT 38.748222 -102.688538 27,350 76 436 576
2019-11-21 14:08:01 GMT 38.745667 -102.702286 27,675 76 434 448
2019-11-21 14:07:55 GMT 38.745667 -102.702286 27,650 76 434 512
2019-11-21 14:07:49 GMT 38.743195 -102.716003 27,600 76 433 640
2019-11-21 14:07:45 GMT 38.740726 -102.729431 27,525 76 433 832
2019-11-21 14:07:40 GMT 38.738571 -102.741158 27,475 76 433 896
2019-11-21 14:07:36 GMT 38.737106 -102.749153 27,425 76 433 832
2019-11-21 14:07:33 GMT 38.735420 -102.758362 27,375 76 433 704
2019-11-21 14:07:29 GMT 38.733883 -102.766846 27,350 76 432 576
2019-11-21 14:07:26 GMT 38.732533 -102.774292 27,325 76 432 640
2019-11-21 14:07:23 GMT 38.730743 -102.783966 27,275 76 431 640
2019-11-21 14:07:19 GMT 38.728912 -102.793938 27,225 76 431 704
2019-11-21 14:07:15 GMT 38.727264 -102.802834 27,200 76 430 768
2019-11-21 14:07:11 GMT 38.725876 -102.810547 27,150 76 430 768
2019-11-21 14:07:05 GMT 38.722961 -102.826118 27,075 76 430 832
2019-11-21 14:07:01 GMT 38.720757 -102.838257 27,000 76 430 768
2019-11-21 14:06:55 GMT 38.716736 -102.860275 26,875 76 429 704
2019-11-21 14:06:52 GMT 38.715866 -102.865166 26,875 76 428 640
2019-11-21 14:06:46 GMT 38.713074 -102.880249 26,800 76 427 576
2019-11-21 14:06:43 GMT 38.713074 -102.880249 26,800 76 427 576
2019-11-21 14:06:39 GMT 38.711060 -102.890785 26,550 76 426 768
2019-11-21 14:06:32 GMT 38.708176 -102.906487 26,675 76 426 768
2019-11-21 14:06:29 GMT 38.702461 -102.937622 26,550 76 426 768
2019-11-21 14:06:21 GMT 38.701530 -102.942505 26,500 76 425 704
2019-11-21 14:06:14 GMT 38.699574 -102.953308 26,450 76 424 576
2019-11-21 14:06:10 GMT 38.697968 -102.961838 26,425 76 424 512
2019-11-21 14:06:07 GMT 38.696640 -102.968933 26,400 76 423 448
2019-11-21 14:06:03 GMT 38.694920 -102.978149 26,350 76 421 448
2019-11-21 14:06:00 GMT 38.693008 -102.988342 26,350 76 421 448
2019-11-21 14:05:57 GMT 38.691612 -102.995605 26,325 76 420 576
2019-11-21 14:05:51 GMT 38.689381 -103.007690 26,225 76 420 1024
2019-11-21 14:05:46 GMT 38.687027 -103.020470 26,150 76 420 1152
2019-11-21 14:05:42 GMT 38.685001 -103.031311 26,075 76 420 1024
2019-11-21 14:05:39 GMT 38.682163 -103.046265 25,975 76 420 960
2019-11-21 14:05:35 GMT 38.682163 -103.046265 25,975 76 420 896
2019-11-21 14:05:31 GMT 38.679932 -103.058144 25,900 76 419 704
2019-11-21 14:05:28 GMT 38.678833 -103.063934 25,875 76 419 640
2019-11-21 14:05:25 GMT 38.677231 -103.072327 25,850 76 419 640
2019-11-21 14:05:19 GMT 38.675228 -103.082947 25,800 76 419 768
2019-11-21 14:05:14 GMT 38.672527 -103.097351 25,725 76 418 896
2019-11-21 14:05:08 GMT 38.669312 -103.114449 25,600 76 419 1088
2019-11-21 14:05:03 GMT 38.667618 -103.123589 25,525 76 419 1152
2019-11-21 14:04:59 GMT 38.666016 -103.132248 25,425 76 419 1024
2019-11-21 14:04:56 GMT 38.664917 -103.138039 25,425 76 419 1024
2019-11-21 14:04:53 GMT 38.662704 -103.149841 25,350 76 418 768
2019-11-21 14:04:47 GMT 38.660339 -103.162575 25,300 76 417 576
2019-11-21 14:04:42 GMT 38.658005 -103.174995 25,250 76 415 576
2019-11-21 14:04:38 GMT 38.656422 -103.183350 25,200 76 414 640
2019-11-21 14:04:35 GMT 38.654976 -103.190979 25,175 76 414 832
2019-11-21 14:04:31 GMT 38.653160 -103.200500 25,125 76 414 896
2019-11-21 14:04:28 GMT 38.651825 -103.207832 25,075 76 413 960
2019-11-21 14:04:25 GMT 38.650879 -103.212830 25,025 76 413 960
2019-11-21 14:04:21 GMT 38.648552 -103.225159 24,950 76 412 832
2019-11-21 14:04:15 GMT 38.643127 -103.253754 24,475 76 409 832
2019-11-21 14:04:08 GMT 38.643127 -103.253754 24,825 76 410 832
2019-11-21 14:04:05 GMT 38.641243 -103.263916 24,750 76 410 960
2019-11-21 14:03:57 GMT 38.637680 -103.282951 24,625 76 409 896
2019-11-21 14:03:45 GMT 38.631134 -103.317581 24,450 76 406 768
2019-11-21 14:03:37 GMT 38.629326 -103.327148 24,375 76 405 896
2019-11-21 14:03:34 GMT 38.627701 -103.335732 24,325 76 404 896
2019-11-21 14:03:27 GMT 38.623367 -103.358704 24,225 76 402 640
2019-11-21 14:03:24 GMT 38.620422 -103.374123 24,125 76 401 832
2019-11-21 14:03:17 GMT 38.620422 -103.374123 24,125 76 401 1088
2019-11-21 14:03:14 GMT 38.618759 -103.383118 24,050 76 400 1344
2019-11-21 14:03:07 GMT 38.616119 -103.397110 23,900 76 401 1216
2019-11-21 14:03:04 GMT 38.614655 -103.404991 23,875 76 401 960
2019-11-21 14:03:01 GMT 38.611172 -103.423096 23,675 76 397 704
2019-11-21 14:02:56 GMT 38.611172 -103.423096 23,775 76 399 640
2019-11-21 14:02:53 GMT 38.609756 -103.430664 23,750 76 398 576
2019-11-21 14:02:45 GMT 38.606655 -103.446899 23,625 76 396 960
2019-11-21 14:02:39 GMT 38.604141 -103.460083 23,575 76 395 1088
2019-11-21 14:02:35 GMT 38.601929 -103.471626 23,475 76 395 1216
2019-11-21 14:02:32 GMT 38.601070 -103.475891 23,450 76 395 1280
2019-11-21 14:02:29 GMT 38.599346 -103.484985 23,350 76 395 1280
2019-11-21 14:02:26 GMT 38.597996 -103.492188 23,300 76 395 1280
2019-11-21 14:02:21 GMT 38.596600 -103.499451 23,225 76 394 1216
2019-11-21 14:02:18 GMT 38.593826 -103.514137 23,125 76 393 896
2019-11-21 14:02:12 GMT 38.592224 -103.522736 23,075 76 391 896
2019-11-21 14:02:06 GMT 38.590034 -103.534180 22,950 76 390 1152
2019-11-21 14:02:03 GMT 38.588104 -103.544289 22,900 76 390 1216
2019-11-21 14:01:55 GMT 38.585148 -103.559692 22,775 76 390 1152
2019-11-21 14:01:52 GMT 38.583473 -103.568665 22,700 76 390 1024
2019-11-21 14:01:45 GMT 38.580631 -103.583374 22,600 76 388 1024
2019-11-21 14:01:39 GMT 38.577747 -103.598511 22,475 76 388 1216
2019-11-21 14:01:34 GMT 38.576210 -103.606506 22,400 76 387 1216
2019-11-21 14:01:31 GMT 38.574509 -103.615585 22,325 76 386 1216
2019-11-21 14:01:27 GMT 38.573410 -103.621376 22,275 76 386 1216
2019-11-21 14:01:24 GMT 38.571926 -103.629150 22,175 76 386 1280
2019-11-21 14:01:18 GMT 38.568996 -103.644653 22,075 76 386 1216
2019-11-21 14:01:13 GMT 38.567692 -103.651733 21,975 76 385 1280
2019-11-21 14:01:10 GMT 38.564896 -103.666573 21,850 76 385 1344
2019-11-21 14:01:03 GMT 38.562653 -103.678513 21,725 76 385 1344
2019-11-21 14:00:56 GMT 38.560272 -103.690872 21,600 76 385 1536
2019-11-21 14:00:52 GMT 38.558121 -103.702339 21,450 76 385 1792
2019-11-21 14:00:49 GMT 38.557262 -103.707031 21,375 76 386 1856
2019-11-21 14:00:46 GMT 38.556007 -103.713684 21,300 76 386 1920
2019-11-21 14:00:41 GMT 38.553585 -103.726562 21,125 76 388 1792
2019-11-21 14:00:36 GMT 38.551678 -103.736816 20,975 76 389 1664
2019-11-21 14:00:32 GMT 38.550568 -103.742821 20,925 76 389 1600
2019-11-21 14:00:28 GMT 38.547775 -103.757568 20,750 76 390 1536
2019-11-21 14:00:22 GMT 38.545624 -103.768555 20,625 76 390 1472
2019-11-21 14:00:19 GMT 38.544479 -103.774590 20,525 76 390 1280
2019-11-21 14:00:16 GMT 38.543343 -103.780151 20,500 76 390 1280
2019-11-21 14:00:12 GMT 38.541714 -103.788635 20,425 76 388 1024
2019-11-21 14:00:05 GMT 38.539017 -103.804260 20,325 80 382 768
2019-11-21 14:00:02 GMT 38.538223 -103.810913 20,300 83 379 832
2019-11-21 13:59:55 GMT 38.537338 -103.826416 20,175 89 372 1216
2019-11-21 13:59:45 GMT 38.538437 -103.849579 19,975 99 360 1088
2019-11-21 13:59:42 GMT 38.539200 -103.855652 19,925 100 358 1024
2019-11-21 13:59:34 GMT 38.542053 -103.870895 19,800 105 350 1216
2019-11-21 13:59:31 GMT 38.543114 -103.875854 19,750 105 349 1344
2019-11-21 13:59:24 GMT 38.547535 -103.896484 19,475 105 349 1792
2019-11-21 13:59:11 GMT 38.551819 -103.916809 19,200 104 349 1600
2019-11-21 13:59:05 GMT 38.554562 -103.929932 19,025 104 348 1792
2019-11-21 13:59:01 GMT 38.556053 -103.937073 18,925 104 349 1856
2019-11-21 13:58:53 GMT 38.559540 -103.954071 18,650 104 349 1728
2019-11-21 13:58:50 GMT 38.560570 -103.959045 18,600 104 349 1600
2019-11-21 13:58:42 GMT 38.563980 -103.975143 18,350 105 349 1920
2019-11-21 13:58:31 GMT 38.568764 -103.997620 18,100 105 349 1856
2019-11-21 13:58:28 GMT 38.569382 -104.000580 17,975 105 349 1664
2019-11-21 13:58:21 GMT 38.573044 -104.017883 17,775 104 347 1344
2019-11-21 13:58:13 GMT 38.576294 -104.033485 17,600 104 345 1344
2019-11-21 13:58:09 GMT 38.577515 -104.039185 17,525 104 344 1280
2019-11-21 13:58:01 GMT 38.580597 -104.053841 17,350 105 342 1664
2019-11-21 13:57:57 GMT 38.582588 -104.062988 17,275 105 342 1728
2019-11-21 13:57:52 GMT 38.584946 -104.074081 17,050 105 341 1728
2019-11-21 13:57:49 GMT 38.585659 -104.077393 17,000 105 341 1664
2019-11-21 13:57:46 GMT 38.587151 -104.084412 16,925 105 340 1536
2019-11-21 13:57:40 GMT 38.589890 -104.096954 16,725 105 339 1536
2019-11-21 13:57:30 GMT 38.593460 -104.113968 16,500 104 336 1600
2019-11-21 13:57:27 GMT 38.595108 -104.122032 16,425 104 336 1664
2019-11-21 13:57:19 GMT 38.598129 -104.137016 16,200 104 336 2048
2019-11-21 13:57:16 GMT 38.599533 -104.144165 16,075 104 335 2176
2019-11-21 13:57:08 GMT 38.602234 -104.157593 15,825 104 336 2368
2019-11-21 13:56:58 GMT 38.606369 -104.177795 15,425 104 338 2176
2019-11-21 13:56:53 GMT 38.608006 -104.185730 15,300 104 338 2112
2019-11-21 13:56:48 GMT 38.609985 -104.195175 15,125 105 338 1920
2019-11-21 13:56:44 GMT 38.612045 -104.204788 15,025 105 337 1856
2019-11-21 13:56:37 GMT 38.614746 -104.217506 14,800 105 336 1792
2019-11-21 13:56:31 GMT 38.617172 -104.228966 14,625 104 334 1728
2019-11-21 13:56:27 GMT 38.618958 -104.237747 14,500 104 334 1728
2019-11-21 13:56:21 GMT 38.620880 -104.247299 14,375 104 332 1728
2019-11-21 13:56:18 GMT 38.622204 -104.253967 14,250 104 331 1728
2019-11-21 13:56:12 GMT 38.624817 -104.266640 14,075 104 329 1664
2019-11-21 13:56:08 GMT 38.626301 -104.273987 13,950 104 327 1856
2019-11-21 13:56:00 GMT 38.629349 -104.288315 13,725 105 326 1856
2019-11-21 13:55:55 GMT 38.631180 -104.296852 13,650 105 325 1856
2019-11-21 13:55:50 GMT 38.633698 -104.308319 13,400 105 323 1664
2019-11-21 13:55:47 GMT 38.634659 -104.312737 13,325 105 321 1536
2019-11-21 13:55:44 GMT 38.635208 -104.315308 13,325 105 321 1536
2019-11-21 13:55:40 GMT 38.637543 -104.325935 13,175 105 319 1728
2019-11-21 13:55:36 GMT 38.638916 -104.332275 12,475 105 317 2624
2019-11-21 13:55:29 GMT 38.641941 -104.346008 12,625 105 317 2496
2019-11-21 13:55:24 GMT 38.643631 -104.353340 12,625 105 317 2624
2019-11-21 13:55:18 GMT 38.646179 -104.365112 12,075 105 320 2432
2019-11-21 13:55:14 GMT 38.647667 -104.372009 12,200 105 319 2560
2019-11-21 13:55:09 GMT 38.649902 -104.382202 11,975 105 320 2304
2019-11-21 13:55:04 GMT 38.655212 -104.407318 11,800 105 311 1856
2019-11-21 13:54:55 GMT 38.655212 -104.407318 11,450 104 318 1216
2019-11-21 13:54:46 GMT 38.658508 -104.423317 11,400 104 316 1216
2019-11-21 13:54:43 GMT 38.659397 -104.427490 11,300 104 314 1408
2019-11-21 13:54:34 GMT 38.663078 -104.445068 11,125 105 312 1664
2019-11-21 13:54:23 GMT 38.666939 -104.463623 10,850 105 311 1856
2019-11-21 13:54:12 GMT 38.671600 -104.484993 10,575 105 306 640
2019-11-21 13:54:02 GMT 38.674713 -104.500122 10,325 104 298 896
2019-11-21 13:53:51 GMT 38.678558 -104.519272 10,200 104 295 2880
2019-11-21 13:53:41 GMT 38.682266 -104.537659 9,675 104 298 2048
2019-11-21 13:53:30 GMT 38.686169 -104.556519 9,375 104 294 1728
2019-11-21 13:53:19 GMT 38.690048 -104.575157 9,050 105 293 1088
2019-11-21 13:53:08 GMT 38.695312 -104.599876 8,875 104 282 1216
2019-11-21 13:53:00 GMT 38.696407 -104.605225 8,800 103 281 1600
2019-11-21 13:52:49 GMT 38.699707 -104.622025 8,625 105 272 320
2019-11-21 13:52:39 GMT 38.703461 -104.637672 8,550 112 256 832
2019-11-21 13:52:30 GMT 38.707443 -104.648537 8,450 120 245 704
2019-11-21 13:52:27 GMT 38.709183 -104.652359 8,400 121 244 768
2019-11-21 13:52:22 GMT 38.712982 -104.660065 8,300 124 234 1152
2019-11-21 13:52:18 GMT 38.715363 -104.664360 8,225 127 232 1280
2019-11-21 13:52:11 GMT 38.720490 -104.671944 8,025 136 226 1856
2019-11-21 13:52:06 GMT 38.723175 -104.675110 7,925 140 225 1664
2019-11-21 13:52:00 GMT 38.729507 -104.680840 7,725 153 220 1856
2019-11-21 13:51:56 GMT 38.732391 -104.682556 7,600 157 219 2176
2019-11-21 13:51:50 GMT 38.739075 -104.685135 7,325 168 220 2240
2019-11-21 13:51:46 GMT 38.743008 -104.685852 7,200 175 219 1600
2019-11-21 13:51:37 GMT 38.762054 -104.685493 6,900 183 210 1408
2019-11-21 13:51:25 GMT 38.762054 -104.685493 6,725 182 206 1536
2019-11-21 13:51:16 GMT 38.771805 -104.685379 6,475 179 198 1920
2019-11-21 13:51:05 GMT 38.781418 -104.685738 6,200 179 193 960
2019-11-21 13:50:54 GMT 38.790207 -104.685799 6,050 179 183 640
2019-11-21 13:50:44 GMT 38.798824 -104.685791 6,050 180 157 -128
2019-11-21 13:50:33 GMT 38.806000 -104.685799 6,075 180 125 -64
2019-11-21 13:50:24 GMT 38.811134 -104.685745 0 180 90
2019-11-21 13:50:12 GMT 38.814560 -104.685753 0 180 44
2019-11-21 13:50:03 GMT 38.815693 -104.685753 0 180 2
2019-11-21 13:49:52 GMT 38.815685 -104.685745 0 180 2
2019-11-21 13:49:39 GMT 38.815968 -104.685898 0 104 10
2019-11-21 13:49:31 GMT 38.815990 -104.686455 0 87 13
2019-11-21 13:49:20 GMT 38.815975 -104.687134 0 84 11
2019-11-21 13:49:11 GMT 38.815815 -104.687714 0 30 10
2019-11-21 13:49:00 GMT 38.815327 -104.687866 0 0 12
2019-11-21 13:48:50 GMT 38.814594 -104.687859 0 0 18
2019-11-21 13:48:39 GMT 38.813782 -104.687866 0 0 16
2019-11-21 13:48:28 GMT 38.813000 -104.687851 0 0 19
2019-11-21 13:48:19 GMT 38.812099 -104.687859 0 0 18
2019-11-21 13:48:07 GMT 38.811241 -104.687866 0 0 18
2019-11-21 13:47:58 GMT 38.810383 -104.687859 0 0 18
2019-11-21 13:47:47 GMT 38.809544 -104.687866 0 0 18
2019-11-21 13:47:37 GMT 38.808659 -104.687866 0 0 19
2019-11-21 13:47:26 GMT 38.807796 -104.687859 0 0 19
2019-11-21 13:47:16 GMT 38.806934 -104.687866 0 0 19
2019-11-21 13:47:06 GMT 38.806011 -104.687866 0 357 19
2019-11-21 13:46:55 GMT 38.805141 -104.687866 0 357 19
2019-11-21 13:46:45 GMT 38.804302 -104.687866 0 357 14
2019-11-21 13:46:33 GMT 38.803768 -104.687988 0 45 12
2019-11-21 13:46:23 GMT 38.803608 -104.688644 0 87 14
2019-11-21 13:46:13 GMT 38.803608 -104.689545 0 90 16
2019-11-21 13:46:02 GMT 38.803608 -104.690498 0 87 18
2019-11-21 13:45:53 GMT 38.803604 -104.691666 0 87 20
2019-11-21 13:45:41 GMT 38.803608 -104.692963 0 90 23
2019-11-21 13:45:32 GMT 38.803608 -104.694382 0 90 27
2019-11-21 13:45:21 GMT 38.803619 -104.695892 0 87 23
2019-11-21 13:45:11 GMT 38.803619 -104.697128 0 90 16
2019-11-21 13:45:00 GMT 38.803619 -104.698029 0 90 17
2019-11-21 13:44:50 GMT 38.803608 -104.699287 0 90 21
2019-11-21 13:44:37 GMT 38.803505 -104.700584 0 56 11
2019-11-21 13:44:29 GMT 38.803257 -104.700836 0 8 11
2019-11-21 13:44:18 GMT 38.802582 -104.700851 0 357 14
2019-11-21 13:44:08 GMT 38.802059 -104.700851 0 0 12
2019-11-21 13:43:57 GMT 38.801548 -104.700859 0 0 11
2019-11-21 13:43:44 GMT 38.800838 -104.700974 0 47 11
2019-11-21 13:43:34 GMT 38.800674 -104.701447 0 78 11
2019-11-21 13:43:27 GMT 38.800579 -104.701965 0 75 11
2019-11-21 13:43:16 GMT 38.800438 -104.702545 0 67 11
2019-11-21 13:43:05 GMT 38.800232 -104.703125 0 61 10
2019-11-21 13:42:55 GMT 38.800022 -104.703537 0 53 7
2019-11-21 13:42:45 GMT 38.799854 -104.703812 0 39 6
2019-11-21 13:42:34 GMT 38.799625 -104.704010 0 19 5
2019-11-21 13:42:24 GMT 38.799454 -104.704063 0 2 4
2019-11-21 13:42:09 GMT 38.799305 -104.704079 0 0 0
2019-11-21 13:42:02 GMT 38.799294 -104.704079 0 0 0
2019-11-21 13:41:52 GMT 38.799301 -104.704071 0 0 0
2019-11-21 13:41:27 GMT 38.799305 -104.704079 0 0 0
2019-11-21 13:41:18 GMT 38.799301 -104.704071 0 0 0
2019-11-21 13:41:07 GMT 38.799294 -104.704079 0 0 0
2019-11-21 13:40:58 GMT 38.799301 -104.704071 0 0 0
2019-11-21 13:40:47 GMT 38.799305 -104.704079 0 0 0
2019-11-21 13:40:28 GMT 38.799301 -104.704071 0 0 0
2019-11-21 13:40:16 GMT 38.799294 -104.704079 0 0 0
2019-11-21 13:39:56 GMT 38.799305 -104.704079 0 0 0
2019-11-21 13:39:47 GMT 38.799301 -104.704071 0 0 0
2019-11-21 13:39:37 GMT 38.799294 -104.704079 0 0 0
2019-11-21 13:39:27 GMT 38.799301 -104.704071 0 0 0
2019-11-21 13:39:13 GMT 38.799294 -104.704079 0 0 0
2019-11-21 13:39:02 GMT 38.799305 -104.704079 0 0 0
2019-11-21 13:38:53 GMT 38.799294 -104.704079 0 0 0
2019-11-21 13:38:42 GMT 38.799301 -104.704071 0 0 0
2019-11-21 13:38:23 GMT 38.799294 -104.704079 0 0 0
2019-11-21 13:38:12 GMT 38.799301 -104.704071 0 0 0
2019-11-21 13:37:42 GMT 38.799294 -104.704079 0 0 0
2019-11-21 13:37:18 GMT 38.799301 -104.704071 0 0 0
2019-11-21 13:37:08 GMT 38.799294 -104.704079 0 0 0
2019-11-21 13:36:52 GMT 38.799301 -104.704071 0 0 0
2019-11-21 13:36:48 GMT 38.799294 -104.704079 0 0 0
2019-11-21 13:36:27 GMT 38.799301 -104.704071 0 0 0
2019-11-21 13:36:18 GMT 38.799294 -104.704079 0 0 0
2019-11-21 13:35:47 GMT 38.799301 -104.704071 0 0 0
2019-11-21 13:35:38 GMT 38.799305 -104.704063 0 0 0
2019-11-21 13:35:22 GMT 38.799294 -104.704079 0 0 0
2019-11-21 13:35:12 GMT 38.799305 -104.704079 0 0 0
2019-11-21 13:35:03 GMT 38.799301 -104.704071 0 0 0
2019-11-21 13:34:52 GMT 38.799305 -104.704079 0 0 0
2019-11-21 13:34:43 GMT 38.799301 -104.704071 0 0 0
2019-11-21 13:34:32 GMT 38.799305 -104.704079 0 0 0
2019-11-21 13:34:22 GMT 38.799305 -104.704063 0 0 0
2019-11-21 13:34:02 GMT 38.799301 -104.704071 0 0 0
2019-11-21 13:33:42 GMT 38.799305 -104.704079 0 0 0
2019-11-21 13:33:17 GMT 38.799301 -104.704071 0 0 0
2019-11-21 13:33:07 GMT 38.799305 -104.704079 0 0 0
2019-11-21 13:32:58 GMT 38.799294 -104.704079 0 0 0
2019-11-21 13:32:28 GMT 38.799301 -104.704071 0 0 0
2019-11-21 13:32:17 GMT 38.799305 -104.704079 0 0 0
2019-11-21 13:31:48 GMT 38.799301 -104.704071 0 0 0
2019-11-21 13:31:37 GMT 38.799294 -104.704079 0 0 0
2019-11-21 13:31:28 GMT 38.799301 -104.704071 0 0 0
2019-11-21 13:30:43 GMT 38.799294 -104.704079 0 0 0
2019-11-21 13:30:34 GMT 38.799305 -104.704079 0 0 0
2019-11-21 13:29:52 GMT 38.799301 -104.704071 0 0 0
2019-11-21 13:29:43 GMT 38.799294 -104.704079 0 0 0
2019-11-21 13:29:32 GMT 38.799301 -104.704071 0 0 0
2019-11-21 13:29:18 GMT 38.799294 -104.704079 0 0 0
2019-11-21 13:29:07 GMT 38.799305 -104.704079 0 0 0
2019-11-21 13:28:57 GMT 38.799301 -104.704071 0 0 0
2019-11-21 13:28:48 GMT 38.799305 -104.704079 0 0 0
2019-11-21 13:28:33 GMT 38.799301 -104.704071 0 0 0
2019-11-21 13:28:29 GMT 38.799305 -104.704079 0 0 0
2019-11-21 13:28:17 GMT 38.799301 -104.704071 0 0 0
2019-11-21 13:28:08 GMT 38.799305 -104.704079 0 0 0
2019-11-21 13:27:57 GMT 38.799301 -104.704071 0 0 0
2019-11-21 13:27:47 GMT 38.799305 -104.704079 0 0 0
2019-11-21 13:27:27 GMT 38.799301 -104.704071 0 0 0
2019-11-21 13:27:18 GMT 38.799294 -104.704079 0 0 0
2019-11-21 13:27:02 GMT 38.799301 -104.704071 0 0 0
2019-11-21 13:26:53 GMT 38.799294 -104.704063 0 0 0
2019-11-21 13:26:32 GMT 38.799301 -104.704071 0 0 0
2019-11-21 13:26:23 GMT 38.799305 -104.704063 0 0 0
2019-11-21 13:26:12 GMT 38.799305 -104.704079 0 0 0
2019-11-21 13:26:03 GMT 38.799301 -104.704071 0 0 0
2019-11-21 13:25:43 GMT 38.799305 -104.704079 0 0 0
2019-11-21 13:24:57 GMT 38.799301 -104.704071 0 0 0
2019-11-21 13:24:48 GMT 38.799305 -104.704079 0 0 0
2019-11-21 13:24:27 GMT 38.799301 -104.704071 0 0 0
2019-11-21 13:24:07 GMT 38.799305 -104.704079 0 0 0
2019-11-21 13:23:58 GMT 38.799294 -104.704079 0 0 0
2019-11-21 13:23:38 GMT 38.799301 -104.704071 0 0 0
2019-11-21 13:23:27 GMT 38.799305 -104.704079 0 0 0
2019-11-21 13:23:17 GMT 38.799301 -104.704071 0 0 0
2019-11-21 13:23:03 GMT 38.799305 -104.704079 0 0 0
2019-11-21 13:22:43 GMT 38.799301 -104.704071 0 0 0
2019-11-21 13:22:27 GMT 38.799305 -104.704079 0 0 0
2019-11-21 13:22:22 GMT 38.799301 -104.704071 0 0 0
2019-11-21 13:22:13 GMT 38.799305 -104.704079 0 0 0
2019-11-21 13:21:54 GMT 38.799301 -104.704071 0 0 0
2019-11-21 13:21:43 GMT 38.799305 -104.704079 0 0 0
2019-11-21 13:21:29 GMT 38.799301 -104.704071 0 0 0
2019-11-21 13:21:18 GMT 38.799305 -104.704079 0 0 0
2019-11-21 13:21:12 GMT 38.799301 -104.704071 0 0 0
2019-11-21 13:21:03 GMT 38.799305 -104.704079 0 0 0
2019-11-21 13:20:52 GMT 38.799278 -104.704071 0 2 4
2019-11-21 13:20:42 GMT 38.799088 -104.704079 0 2 6
2019-11-21 13:20:31 GMT 38.798790 -104.704079 0 348 7
2019-11-21 13:20:20 GMT 38.798546 -104.703827 0 278 7
2019-11-21 13:20:09 GMT 38.798538 -104.703392 0 270 7
2019-11-21 13:19:59 GMT 38.798538 -104.703003 0 270 6
2019-11-21 13:19:50 GMT 38.798538 -104.702751 0 281 4
2019-11-21 13:18:56 GMT 38.798515 -104.702560 0 323 2
2019-11-21 13:18:39 GMT 38.798462 -104.702484 0 30 0
2019-11-21 13:17:54 GMT 38.798401 -104.702515 0 87 0
2019-11-21 13:17:09 GMT 38.798405 -104.702515 0 87 0
2019-11-21 13:16:11 GMT 38.798401 -104.702515 0 87 0
2019-11-21 13:16:00 GMT 38.798401 -104.702469 0 87 2

Making use of Plane Finder data

You are free to use the raw flight data, aircraft information and images provided in this report for your own purposes provided the data is correctly attributed to Plane Finder. We ask that you please credit Plane Finder and link to planefinder.net in close proximity to the content.

Optionally one of the following logos (no smaller then 150x24px) can be used and must link to planefinder.net

Embedding the Plane Finder map

You are welcome to embed the Plane Finder playback map on your website to offer visitors a more interactive experience. We suggest using the following HTML code:

<iframe src="//planefinder.net/data/report/UA5639-N854AS-7700-squawk-2019-11-21/map" width="800" height="600" seamless="seamless"></iframe>

Where our data comes from

Plane Finder has a global network of data feeds and antenna radars that receive data broadcast directly from aircraft. The primary technologies used are ADS-B and MLAT. We also show feeds from the FAA and a FLARM glider feed.

Click here to find out more about the Plane Finder network.

How we collect our data